Usk, WA

11:17 PM PDT on September 21, 2014 (GMT -0700)
Felts | Change Station
CLOSE
Current Station
Airport
Location: Spokane Felts,
Elevation: 1952 ft
Nearby Weather Stations

Elev 1952 ft 47.68 °N, 117.32 °W | Updated 24 minutes ago

Clear
Clear
62 °F
Feels Like 62 °F
N
0
Wind Variable Wind from North

Today
High -- | Low -- °F
--% Chance of Precip.
Yesterday
High -- | Low -- °F
Precip. -- in
6:34 AM 6:48 PM
Waning Crescent, 4% visible
Pressure 29.86 in
Visibility 10.0 miles
Clouds Clear
Dew Point 42 °F
Humidity 48%
Rainfall 0.00 in
Snow Depth 0 in , 0 in , 0 in
UV 0 out of 12
Pollen 7.90 out of 12
PM2.5 Moderate
Flu Activity Not available.
METAR KSFF 220553Z AUTO 00000KT 10SM CLR 17/06 A2989 RMK AO2 SLP110 T01670056 10311 20161 51002

More Conditions Fewer Conditions

Pressure 29.86 in
Visibility 10.0 miles
Clouds Clear
Dew Point 42 °F
Humidity 48%
Rainfall 0.00 in
Snow Depth 0 in , 0 in , 0 in
UV 0 out of 12
Pollen 7.90 out of 12
PM2.5 Moderate
Flu Activity Not available.
METAR KSFF 220553Z AUTO 00000KT 10SM CLR 17/06 A2989 RMK AO2 SLP110 T01670056 10311 20161 51002

More Conditions Fewer Conditions

10-Day Weather Forecast

Almanac

Astronomy

Sep. 21, 2014 Rise Set
Actual Time 6:34 AM PDT 6:48 PM PDT
Civil Twilight 6:03 AM PDT 7:20 PM PDT
Nautical Twilight 5:26 AM PDT 7:56 PM PDT
Astronomical Twilight 4:48 AM PDT 8:34 PM PDT
Moon 4:03 AM PDT (9/21) 5:33 PM PDT (9/21)
Length of Visible Light 13h 16m
Length of Day
12h 14m
Tomorrow will be 3m 29s shorter.
Waning Crescent, 4% of the Moon is Illuminated
Sep 22
Waning Crescent
Sep 24
New
Oct 1
First Quarter
Oct 8
Full
Oct 15
Last Quarter

Yesterday's Extremes

State Highs State Lows

Community

WunderPhotos

Upload Photos

1,755,392 photos uploaded!

Nearby

Air Quality

  Air Quality AQ Index Pollutant
Yesterday Good
PM10
Yesterday Good
OZONE
Current Moderate
PM2.5
Sunday Good
PM10
Sunday Good
OZONE
Monday Good
PM10
Monday Good
OZONE

Snow Depth

Station Depth Elevation
Pigtail Peak 0 in 5900 ft
Sasse Ridge 0 in 4200 ft
Morse Lake 0 in 5400 ft
Park Creek Ridge 0 in 4600 ft
Surprise Lakes 1 in 4250 ft

Earthquake Activity

City Distance Mag. Time & Date
No recent earthquake activity has been reported nearby.
Minimum magnitude displayed is 2.5.

Coastal Water Temperatures

Place Temperature
No Stations Reporting

Nearby Weather Stations